createdAt,value
2017-06-16T00:00:22.793Z,99.99
2017-06-16T00:01:31.747Z,99.99
2017-06-16T00:02:40.794Z,99.99
2017-06-16T00:03:49.799Z,99.99
2017-06-16T00:04:58.753Z,99.99
2017-06-16T00:06:07.711Z,99.99
2017-06-16T00:07:16.665Z,99.99
2017-06-16T00:08:25.622Z,99.99
2017-06-16T00:09:34.590Z,99.99
2017-06-16T00:10:43.545Z,99.99
2017-06-16T00:11:52.842Z,99.99
2017-06-16T00:13:01.796Z,99.99
2017-06-16T00:14:10.759Z,99.99
2017-06-16T00:15:19.765Z,99.99
2017-06-16T00:16:28.769Z,99.99
2017-06-16T00:17:37.725Z,99.99
2017-06-16T00:18:46.687Z,99.99
2017-06-16T00:19:55.642Z,99.99
2017-06-16T00:21:04.596Z,99.99
2017-06-16T00:22:13.555Z,99.99
2017-06-16T00:23:22.509Z,99.99
2017-06-16T00:24:31.465Z,99.99
2017-06-16T00:25:40.419Z,99.99
2017-06-16T00:26:49.429Z,99.99
2017-06-16T00:27:58.388Z,99.99
2017-06-16T00:29:07.344Z,99.99
2017-06-16T00:30:16.295Z,99.99
2017-06-16T00:31:25.289Z,99.99
2017-06-16T00:32:34.336Z,99.99
2017-06-16T00:33:43.301Z,99.99
2017-06-16T00:34:52.597Z,99.99
2017-06-16T00:36:01.641Z,99.99
2017-06-16T00:37:10.603Z,99.99
2017-06-16T00:38:19.558Z,99.99
2017-06-16T00:39:28.513Z,99.99
2017-06-16T00:40:37.472Z,99.99
2017-06-16T00:41:46.428Z,99.99
2017-06-16T00:42:55.384Z,99.99
2017-06-16T00:44:04.387Z,99.99
2017-06-16T00:45:13.343Z,99.99
2017-06-16T00:46:22.298Z,99.99
2017-06-16T00:47:31.258Z,99.99
2017-06-16T00:48:40.218Z,99.99
2017-06-16T00:49:49.233Z,99.99
2017-06-16T00:50:58.185Z,99.99
2017-06-16T00:52:07.138Z,99.99
2017-06-16T00:53:16.180Z,99.99
2017-06-16T00:54:25.134Z,99.99
2017-06-16T00:55:34.144Z,99.99
2017-06-16T00:56:43.098Z,99.99
2017-06-16T00:57:52.060Z,99.99
2017-06-16T00:59:01.013Z,99.99
2017-06-16T01:00:09.979Z,99.99
2017-06-16T01:01:19.026Z,99.99
2017-06-16T01:02:27.989Z,99.99
2017-06-16T01:03:36.946Z,99.99
2017-06-16T01:04:45.902Z,99.99
2017-06-16T01:05:54.859Z,99.99
2017-06-16T01:07:03.993Z,99.99
2017-06-16T01:08:12.950Z,99.99
2017-06-16T01:09:21.903Z,99.99
2017-06-16T01:10:30.951Z,99.99
2017-06-16T01:11:39.908Z,99.99
2017-06-16T01:12:48.914Z,99.99
2017-06-16T01:13:57.875Z,99.99
2017-06-16T01:15:06.832Z,99.99
2017-06-16T01:16:15.827Z,99.99
2017-06-16T01:17:24.779Z,99.99
2017-06-16T01:18:33.866Z,99.99
2017-06-16T01:19:42.823Z,99.99
2017-06-16T01:20:51.787Z,99.99
2017-06-16T01:22:00.760Z,99.99
2017-06-16T01:23:09.806Z,99.99
2017-06-16T01:24:18.811Z,99.99
2017-06-16T01:25:27.767Z,99.99
2017-06-16T01:26:36.727Z,99.99
2017-06-16T01:27:45.691Z,99.99
2017-06-16T01:28:54.983Z,99.99
2017-06-16T01:30:03.993Z,99.99
2017-06-16T01:31:12.951Z,99.99
2017-06-16T01:32:21.905Z,99.99
2017-06-16T01:33:30.861Z,99.99
2017-06-16T01:34:39.823Z,99.99
2017-06-16T01:35:48.831Z,99.99
2017-06-16T01:36:57.790Z,99.99
2017-06-16T01:38:06.747Z,99.99
2017-06-16T01:39:15.706Z,99.99
2017-06-16T01:40:24.662Z,99.99
2017-06-16T01:41:33.996Z,99.99
2017-06-16T01:42:42.952Z,99.99
2017-06-16T01:43:51.918Z,99.99
2017-06-16T01:45:00.909Z,99.99
2017-06-16T01:46:09.876Z,99.99
2017-06-16T01:47:18.832Z,99.99
2017-06-16T01:48:27.792Z,99.99
2017-06-16T01:49:36.749Z,99.99
2017-06-16T01:50:45.705Z,99.99
2017-06-16T01:51:55.002Z,99.99
2017-06-16T01:53:04.013Z,99.99
2017-06-16T01:54:12.970Z,99.99
2017-06-16T01:55:21.927Z,99.99
2017-06-16T01:56:30.882Z,99.99
2017-06-16T01:57:39.833Z,99.99
2017-06-16T01:58:48.788Z,99.99
2017-06-16T01:59:57.744Z,99.99
2017-06-16T02:01:06.718Z,99.99
2017-06-16T02:02:15.667Z,99.99
2017-06-16T02:03:24.623Z,99.99
2017-06-16T02:04:33.577Z,99.99
2017-06-16T02:05:42.541Z,99.99
2017-06-16T02:06:51.501Z,99.99
2017-06-16T02:08:00.453Z,99.99
2017-06-16T02:09:09.408Z,99.99
2017-06-16T02:10:18.415Z,99.99
2017-06-16T02:11:27.411Z,99.99
2017-06-16T02:12:36.363Z,99.99
2017-06-16T02:13:45.324Z,99.99
2017-06-16T02:14:54.284Z,99.99
2017-06-16T02:16:03.239Z,99.99
2017-06-16T02:17:12.202Z,99.99
2017-06-16T02:18:21.159Z,99.99
2017-06-16T02:19:30.116Z,99.99
2017-06-16T02:20:39.074Z,99.99
2017-06-16T02:21:48.079Z,99.99
2017-06-16T02:22:57.035Z,99.99
2017-06-16T02:24:05.991Z,99.99
2017-06-16T02:25:14.949Z,99.99
2017-06-16T02:26:23.900Z,99.99
2017-06-16T02:27:32.906Z,99.99
2017-06-16T02:28:41.863Z,99.99
2017-06-16T02:29:50.822Z,99.99
2017-06-16T02:30:59.786Z,99.99
2017-06-16T02:32:08.840Z,99.99
2017-06-16T02:33:18.169Z,99.99
2017-06-16T02:34:27.124Z,99.99
2017-06-16T02:35:36.075Z,99.99
2017-06-16T02:36:45.038Z,99.99
2017-06-16T02:37:53.995Z,99.99
2017-06-16T02:39:02.999Z,99.99
2017-06-16T02:40:11.956Z,99.99
2017-06-16T02:41:20.912Z,99.99
2017-06-16T02:42:29.868Z,99.99
2017-06-16T02:43:38.826Z,99.99
2017-06-16T02:44:48.157Z,99.99
2017-06-16T02:45:57.199Z,99.99
2017-06-16T02:47:06.153Z,99.99
2017-06-16T02:48:15.118Z,99.99
2017-06-16T02:49:24.076Z,99.99
2017-06-16T02:50:33.085Z,99.99
2017-06-16T02:51:42.043Z,99.99
2017-06-16T02:52:50.999Z,99.99
2017-06-16T02:53:59.953Z,99.99
2017-06-16T02:55:08.905Z,99.99
2017-06-16T02:56:18.037Z,99.99
2017-06-16T02:57:26.995Z,99.99
2017-06-16T02:58:35.949Z,99.99
2017-06-16T02:59:45.231Z,99.99
2017-06-16T03:00:54.230Z,99.99
2017-06-16T03:02:03.192Z,99.99
2017-06-16T03:03:12.155Z,99.99
2017-06-16T03:04:21.106Z,99.99
2017-06-16T03:05:30.064Z,99.99
2017-06-16T03:06:39.022Z,99.99
2017-06-16T03:07:48.026Z,99.99
2017-06-16T03:08:56.986Z,99.99
2017-06-16T03:10:05.938Z,99.99
2017-06-16T03:11:14.896Z,99.99
2017-06-16T03:12:23.847Z,99.99
2017-06-16T03:13:32.942Z,99.99
2017-06-16T03:14:41.898Z,99.99
2017-06-16T03:15:50.855Z,99.99
2017-06-16T03:16:59.814Z,99.99
2017-06-16T03:18:08.768Z,99.99
2017-06-16T03:19:17.859Z,99.99
2017-06-16T03:20:26.822Z,99.99
2017-06-16T03:21:35.866Z,99.99
2017-06-16T03:22:44.822Z,99.99
2017-06-16T03:23:53.781Z,99.99
2017-06-16T03:25:03.440Z,99.99
2017-06-16T03:26:12.396Z,99.99
2017-06-16T03:27:21.443Z,99.99
2017-06-16T03:28:30.406Z,99.99
2017-06-16T03:29:39.360Z,99.99
2017-06-16T03:30:48.369Z,99.99
2017-06-16T03:31:57.326Z,99.99
2017-06-16T03:33:06.283Z,99.99
2017-06-16T03:34:15.240Z,99.99
2017-06-16T03:35:24.196Z,99.99
2017-06-16T03:36:33.208Z,99.99
2017-06-16T03:37:42.162Z,99.99
2017-06-16T03:38:52.387Z,99.99
2017-06-16T03:40:01.344Z,99.99
2017-06-16T03:41:10.307Z,99.99
2017-06-16T03:42:19.266Z,99.99
2017-06-16T03:43:28.229Z,99.99
2017-06-16T03:44:37.183Z,99.99
2017-06-16T03:45:46.135Z,99.99
2017-06-16T03:46:55.093Z,99.99
2017-06-16T03:48:04.189Z,99.99
2017-06-16T03:49:13.147Z,99.99
2017-06-16T03:50:22.104Z,99.99
2017-06-16T03:51:31.059Z,99.99
2017-06-16T03:52:40.012Z,99.99
2017-06-16T03:53:49.022Z,99.99
2017-06-16T03:54:58.061Z,99.99
2017-06-16T03:56:07.014Z,99.99
2017-06-16T03:57:15.973Z,99.99
2017-06-16T03:58:25.252Z,99.99
2017-06-16T03:59:34.257Z,99.99
2017-06-16T04:00:43.213Z,99.99
2017-06-16T04:01:52.171Z,99.99
2017-06-16T04:03:01.130Z,99.99
2017-06-16T04:04:10.095Z,99.99
2017-06-16T04:05:19.119Z,99.99
2017-06-16T04:06:28.077Z,99.99
2017-06-16T04:07:37.030Z,99.99
2017-06-16T04:08:45.985Z,99.99
2017-06-16T04:09:54.943Z,99.99
2017-06-16T04:11:03.955Z,99.99
2017-06-16T04:12:12.919Z,99.99
2017-06-16T04:13:21.874Z,99.99
2017-06-16T04:14:30.837Z,99.99
2017-06-16T04:15:39.831Z,99.99
2017-06-16T04:16:48.786Z,99.99
2017-06-16T04:17:57.742Z,99.99
2017-06-16T04:19:06.731Z,99.99
2017-06-16T04:20:15.696Z,99.99
2017-06-16T04:21:24.653Z,99.99
2017-06-16T04:22:33.749Z,99.99
2017-06-16T04:23:42.795Z,99.99
2017-06-16T04:24:51.754Z,99.99
2017-06-16T04:26:00.710Z,99.99
2017-06-16T04:27:09.665Z,99.99
2017-06-16T04:28:18.758Z,99.99
2017-06-16T04:29:27.714Z,99.99
2017-06-16T04:30:36.670Z,99.99
2017-06-16T04:31:45.622Z,99.99
2017-06-16T04:32:54.912Z,99.99
2017-06-16T04:34:03.955Z,99.99
2017-06-16T04:35:12.915Z,99.99
2017-06-16T04:36:21.869Z,99.99
2017-06-16T04:37:30.828Z,99.99
2017-06-16T04:38:39.785Z,99.99
2017-06-16T04:39:48.794Z,99.99
2017-06-16T04:40:57.749Z,99.99
2017-06-16T04:42:06.791Z,99.99
2017-06-16T04:43:15.750Z,99.99
2017-06-16T04:44:24.826Z,99.99
2017-06-16T04:45:33.840Z,99.99
2017-06-16T04:46:42.799Z,99.99
2017-06-16T04:47:51.785Z,99.99
2017-06-16T04:49:00.743Z,99.99
2017-06-16T04:50:09.699Z,99.99
2017-06-16T04:51:18.704Z,99.99
2017-06-16T04:52:27.662Z,99.99
2017-06-16T04:53:36.620Z,99.99
2017-06-16T04:54:45.581Z,99.99
2017-06-16T04:55:54.538Z,99.99
2017-06-16T04:57:03.544Z,99.99
2017-06-16T04:58:12.501Z,99.99
2017-06-16T04:59:21.454Z,99.99
2017-06-16T05:00:30.412Z,99.99
2017-06-16T05:01:39.381Z,99.99
2017-06-16T05:02:48.386Z,99.99
2017-06-16T05:03:57.346Z,99.99
2017-06-16T05:05:06.308Z,99.99
2017-06-16T05:06:15.588Z,99.99
2017-06-16T05:07:24.650Z,99.99
2017-06-16T05:08:33.657Z,99.99
2017-06-16T05:09:42.779Z,99.99
2017-06-16T05:10:51.750Z,99.99
2017-06-16T05:12:00.705Z,99.99
2017-06-16T05:13:10.153Z,99.99
2017-06-16T05:14:19.219Z,99.99
2017-06-16T05:15:28.178Z,99.99
2017-06-16T05:16:37.250Z,99.99
2017-06-16T05:17:46.408Z,99.99
2017-06-16T05:18:55.466Z,99.99
2017-06-16T05:20:04.425Z,99.99
2017-06-16T05:21:13.443Z,99.99
2017-06-16T05:22:22.404Z,99.99
2017-06-16T05:23:31.365Z,99.99
2017-06-16T05:24:40.399Z,99.99
2017-06-16T05:25:49.362Z,99.99
2017-06-16T05:26:58.316Z,99.99
2017-06-16T05:28:07.273Z,99.99
2017-06-16T05:29:16.373Z,99.99
2017-06-16T05:30:25.434Z,99.99
2017-06-16T05:31:34.833Z,99.99
2017-06-16T05:32:43.900Z,99.99
2017-06-16T05:33:52.856Z,99.99
2017-06-16T05:35:01.848Z,99.99
2017-06-16T05:36:10.807Z,99.99
2017-06-16T05:37:19.851Z,99.99
2017-06-16T05:38:28.842Z,99.99
2017-06-16T05:39:37.798Z,99.99
2017-06-16T05:40:46.762Z,99.99
2017-06-16T05:41:55.718Z,99.99
2017-06-16T05:43:04.709Z,99.99
2017-06-16T05:44:13.666Z,99.99
2017-06-16T05:45:22.624Z,99.99
2017-06-16T05:46:31.639Z,99.99
2017-06-16T05:47:40.761Z,99.99
2017-06-16T05:48:49.761Z,99.99
2017-06-16T05:49:58.875Z,99.99
2017-06-16T05:51:07.979Z,99.99
2017-06-16T05:52:16.935Z,99.99
2017-06-16T05:53:26.125Z,99.99
2017-06-16T05:54:35.136Z,99.99
2017-06-16T05:55:44.401Z,99.99
2017-06-16T05:56:53.462Z,99.99
2017-06-16T05:58:02.418Z,99.99
2017-06-16T05:59:11.374Z,99.99
2017-06-16T06:00:20.384Z,99.99
2017-06-16T06:01:29.339Z,99.99
2017-06-16T06:02:38.386Z,99.99
2017-06-16T06:03:47.339Z,99.99
2017-06-16T06:04:56.472Z,99.99
2017-06-16T06:06:05.428Z,99.99
2017-06-16T06:07:14.382Z,99.99
2017-06-16T06:08:23.339Z,99.92
2017-06-16T06:09:32.334Z,99.99
2017-06-16T06:10:41.297Z,99.15
2017-06-16T06:11:50.307Z,98.68
2017-06-16T06:12:59.264Z,99.99
2017-06-16T06:14:08.216Z,99.99
2017-06-16T06:15:17.170Z,99.99
2017-06-16T06:16:26.124Z,99.99
2017-06-16T06:17:35.084Z,99.99
2017-06-16T06:18:44.041Z,99.99
2017-06-16T06:19:53.000Z,99.99
2017-06-16T06:21:01.958Z,99.99
2017-06-16T06:22:10.913Z,98.19
2017-06-16T06:23:20.117Z,99.99
2017-06-16T06:24:29.168Z,99.25
2017-06-16T06:25:38.129Z,99.99
2017-06-16T06:26:47.445Z,99.99
2017-06-16T06:27:56.406Z,99.99
2017-06-16T06:29:05.368Z,99.15
2017-06-16T06:30:14.328Z,98.39
2017-06-16T06:31:23.618Z,99.99
2017-06-16T06:32:32.665Z,99.99
2017-06-16T06:33:41.622Z,99.99
2017-06-16T06:34:50.629Z,99.92
2017-06-16T06:35:59.586Z,98.29
2017-06-16T06:37:08.867Z,99.73
2017-06-16T06:38:17.821Z,99.99
2017-06-16T06:39:26.779Z,99.63
2017-06-16T06:40:35.824Z,99.99
2017-06-16T06:41:44.786Z,99.78
2017-06-16T06:42:53.787Z,98.91
2017-06-16T06:44:02.745Z,98.43
2017-06-16T06:45:11.698Z,99.49
2017-06-16T06:46:20.708Z,99.58
2017-06-16T06:47:29.662Z,98.72
2017-06-16T06:48:38.616Z,97.76
2017-06-16T06:49:47.574Z,99.49
2017-06-16T06:50:56.530Z,99.97
2017-06-16T06:52:05.534Z,99.99
2017-06-16T06:53:14.485Z,99.63
2017-06-16T06:54:23.437Z,99.99
2017-06-16T06:55:32.390Z,99.99
2017-06-16T06:56:41.343Z,99.99
2017-06-16T06:57:50.296Z,99.99
2017-06-16T06:58:59.255Z,99.99
2017-06-16T07:00:08.211Z,99.99
2017-06-16T07:01:17.167Z,99.99
2017-06-16T07:02:26.124Z,99.99
2017-06-16T07:03:35.156Z,99.99
2017-06-16T07:04:44.120Z,99.99
2017-06-16T07:05:53.078Z,99.99
2017-06-16T07:07:02.037Z,99.99
2017-06-16T07:08:11.002Z,99.99
2017-06-16T07:09:20.005Z,99.99
2017-06-16T07:10:28.958Z,99.99
2017-06-16T07:11:37.916Z,99.99
2017-06-16T07:12:46.876Z,99.99
2017-06-16T07:13:55.871Z,99.99
2017-06-16T07:15:04.873Z,99.99
2017-06-16T07:16:13.827Z,99.99
2017-06-16T07:17:22.786Z,99.99
2017-06-16T07:18:31.740Z,99.99
2017-06-16T07:19:40.699Z,99.99
2017-06-16T07:20:49.703Z,99.99
2017-06-16T07:21:58.747Z,99.99
2017-06-16T07:23:07.700Z,99.99
2017-06-16T07:24:16.749Z,99.99
2017-06-16T07:25:26.041Z,99.99
2017-06-16T07:26:34.995Z,99.99
2017-06-16T07:27:43.950Z,99.99
2017-06-16T07:28:52.912Z,99.99
2017-06-16T07:30:01.863Z,99.99
2017-06-16T07:31:10.815Z,99.99
2017-06-16T07:32:19.819Z,99.99
2017-06-16T07:33:28.775Z,99.99
2017-06-16T07:34:37.734Z,99.99
2017-06-16T07:35:46.779Z,99.99
2017-06-16T07:36:55.738Z,99.99
2017-06-16T07:38:05.065Z,99.99
2017-06-16T07:39:14.021Z,99.99
2017-06-16T07:40:22.974Z,99.99
2017-06-16T07:41:31.929Z,99.99
2017-06-16T07:42:40.927Z,99.99
2017-06-16T07:43:49.934Z,99.99
2017-06-16T07:44:58.890Z,99.99
2017-06-16T07:46:07.842Z,99.99
2017-06-16T07:47:16.800Z,99.99
2017-06-16T07:48:26.092Z,99.99
2017-06-16T07:49:35.047Z,99.99
2017-06-16T07:50:44.003Z,99.99
2017-06-16T07:51:52.961Z,99.99
2017-06-16T07:53:02.003Z,99.99
2017-06-16T07:54:11.048Z,99.99
2017-06-16T07:55:20.332Z,99.99
2017-06-16T07:56:29.302Z,99.99
2017-06-16T07:57:38.672Z,99.99
2017-06-16T07:58:47.629Z,99.99
2017-06-16T07:59:56.581Z,99.99
2017-06-16T08:01:05.532Z,99.99
2017-06-16T08:02:14.482Z,99.99
2017-06-16T08:03:23.434Z,99.99
2017-06-16T08:04:32.388Z,99.99
2017-06-16T08:05:41.340Z,99.99
2017-06-16T08:06:50.351Z,99.99
2017-06-16T08:07:59.307Z,99.99
2017-06-16T08:09:08.264Z,99.99
2017-06-16T08:10:17.217Z,99.99
2017-06-16T08:11:26.179Z,99.99
2017-06-16T08:12:35.137Z,99.99
2017-06-16T08:13:44.091Z,99.99
2017-06-16T08:14:53.048Z,99.99
2017-06-16T08:16:02.009Z,99.99
2017-06-16T08:17:10.967Z,99.99
2017-06-16T08:18:19.967Z,99.99
2017-06-16T08:19:29.007Z,99.99
2017-06-16T08:20:37.961Z,99.99
2017-06-16T08:21:46.914Z,99.99
2017-06-16T08:22:55.868Z,99.99
2017-06-16T08:24:04.875Z,99.99
2017-06-16T08:25:13.832Z,99.99
2017-06-16T08:26:22.790Z,99.99
2017-06-16T08:27:31.746Z,99.99
2017-06-16T08:28:40.700Z,99.99
2017-06-16T08:29:49.653Z,99.99
2017-06-16T08:30:58.614Z,99.99
2017-06-16T08:32:07.703Z,99.99
2017-06-16T08:33:16.655Z,99.99
2017-06-16T08:34:25.614Z,99.99
2017-06-16T08:35:34.596Z,99.99
2017-06-16T08:36:43.553Z,99.99
2017-06-16T08:37:52.507Z,99.99
2017-06-16T08:39:01.462Z,99.99
2017-06-16T08:40:10.516Z,99.99
2017-06-16T08:41:19.548Z,99.99
2017-06-16T08:42:28.510Z,99.99
2017-06-16T08:43:37.464Z,99.99
2017-06-16T08:44:46.423Z,99.99
2017-06-16T08:45:55.391Z,99.99
2017-06-16T08:47:04.341Z,99.99
2017-06-16T08:48:13.296Z,99.99
2017-06-16T08:49:22.249Z,99.99
2017-06-16T08:50:31.535Z,99.99
2017-06-16T08:51:40.581Z,99.99
2017-06-16T08:52:49.536Z,99.99
2017-06-16T08:53:58.494Z,99.99
2017-06-16T08:55:07.449Z,99.99
2017-06-16T08:56:16.411Z,99.99
2017-06-16T08:57:25.369Z,99.99
2017-06-16T08:58:34.377Z,99.99
2017-06-16T08:59:43.331Z,99.99
2017-06-16T09:00:52.285Z,99.99
2017-06-16T09:02:01.241Z,99.44
2017-06-16T09:03:10.197Z,99.39
2017-06-16T09:04:19.204Z,99.99
2017-06-16T09:05:28.159Z,99.99
2017-06-16T09:06:37.121Z,99.99
2017-06-16T09:07:46.761Z,99.99
2017-06-16T09:08:55.717Z,99.99
2017-06-16T09:10:04.671Z,99.99
2017-06-16T09:11:13.630Z,99.05
2017-06-16T09:12:22.584Z,99.99
2017-06-16T09:13:31.539Z,99.99
2017-06-16T09:14:40.494Z,99.73
2017-06-16T09:15:49.449Z,99.99
2017-06-16T09:16:58.405Z,99.99
2017-06-16T09:18:07.446Z,99.73
2017-06-16T09:19:16.414Z,99.44
2017-06-16T09:20:25.371Z,99.99
2017-06-16T09:21:34.334Z,99.99
2017-06-16T09:22:43.288Z,99.99
2017-06-16T09:23:52.248Z,98.14
2017-06-16T09:25:01.201Z,99.49
2017-06-16T09:26:10.157Z,99.2
2017-06-16T09:27:19.161Z,99.25
2017-06-16T09:28:28.117Z,99.99
2017-06-16T09:29:37.118Z,99.4
2017-06-16T09:30:46.088Z,97.47
2017-06-16T09:31:55.049Z,97.19
2017-06-16T09:33:04.061Z,99.87
2017-06-16T09:34:13.018Z,97.66
2017-06-16T09:35:21.979Z,98.72
2017-06-16T09:36:30.935Z,99.68
2017-06-16T09:37:39.886Z,99.4
2017-06-16T09:38:48.889Z,97.09
2017-06-16T09:39:57.847Z,96.32
2017-06-16T09:41:06.804Z,96.8
2017-06-16T09:42:15.756Z,98.63
2017-06-16T09:43:24.714Z,99.58
2017-06-16T09:44:33.673Z,99.3
2017-06-16T09:45:42.629Z,96.99
2017-06-16T09:46:51.584Z,97.19
2017-06-16T09:48:00.535Z,98.43
2017-06-16T09:49:09.580Z,97.09
2017-06-16T09:50:18.537Z,99.87
2017-06-16T09:51:27.582Z,99.58
2017-06-16T09:52:36.548Z,97.86
2017-06-16T09:53:45.504Z,96.61
2017-06-16T09:54:54.458Z,99.99
2017-06-16T09:56:03.420Z,97.38
2017-06-16T09:57:12.377Z,93.77
2017-06-16T09:58:21.344Z,98.63
2017-06-16T09:59:30.302Z,99.4
2017-06-16T10:00:39.258Z,97.04
2017-06-16T10:01:48.303Z,99.83
2017-06-16T10:02:57.261Z,97.81
2017-06-16T10:04:06.303Z,96.66
2017-06-16T10:05:15.262Z,99.99
2017-06-16T10:06:24.218Z,99.99
2017-06-16T10:07:33.500Z,98.77
2017-06-16T10:08:42.469Z,97.09
2017-06-16T10:09:51.426Z,95.03
2017-06-16T10:11:00.384Z,96.27
2017-06-16T10:12:09.337Z,95.21
2017-06-16T10:13:18.296Z,88.92
2017-06-16T10:14:27.252Z,94.16
2017-06-16T10:15:36.214Z,93.1
2017-06-16T10:16:45.171Z,96.56
2017-06-16T10:17:54.126Z,99.63
2017-06-16T10:19:03.169Z,99.68
2017-06-16T10:20:12.168Z,99.99
2017-06-16T10:21:21.146Z,91.22
2017-06-16T10:22:30.426Z,94.78
2017-06-16T10:23:39.376Z,93.05
2017-06-16T10:24:48.334Z,88.63
2017-06-16T10:25:57.289Z,93.05
2017-06-16T10:27:06.249Z,92.57
2017-06-16T10:28:15.206Z,95.75
2017-06-16T10:29:24.490Z,94.4
2017-06-16T10:30:33.451Z,90.07
2017-06-16T10:31:42.410Z,83.06
2017-06-16T10:32:51.369Z,90.55
2017-06-16T10:34:00.326Z,92.57
2017-06-16T10:35:09.282Z,99.99
2017-06-16T10:36:18.286Z,97.86
2017-06-16T10:37:27.241Z,97.91
2017-06-16T10:38:36.193Z,96.08
2017-06-16T10:39:45.147Z,94.54
2017-06-16T10:40:54.105Z,95.12
2017-06-16T10:42:03.118Z,86.85
2017-06-16T10:43:12.399Z,94.73
2017-06-16T10:44:21.360Z,93
2017-06-16T10:45:30.407Z,98.19
2017-06-16T10:46:39.369Z,93.96
2017-06-16T10:47:48.697Z,98.92
2017-06-16T10:48:57.655Z,94.68
2017-06-16T10:50:06.612Z,97.09
2017-06-16T10:51:15.893Z,98.1
2017-06-16T10:52:24.853Z,98.1
2017-06-16T10:53:33.864Z,95.21
2017-06-16T10:54:42.823Z,92.8
2017-06-16T10:55:51.783Z,90.44
2017-06-16T10:57:00.745Z,98
2017-06-16T10:58:09.703Z,99.99
2017-06-16T10:59:18.714Z,97.09
2017-06-16T11:00:27.673Z,98.87
2017-06-16T11:01:36.632Z,93.57
2017-06-16T11:02:45.592Z,78.06
2017-06-16T11:03:54.549Z,83.84
2017-06-16T11:05:03.554Z,82.16
2017-06-16T11:06:12.513Z,87.94
2017-06-16T11:07:21.475Z,91.02
2017-06-16T11:08:30.430Z,82.54
2017-06-16T11:09:39.392Z,89.86
2017-06-16T11:10:48.404Z,87.12
2017-06-16T11:11:57.362Z,81.06
2017-06-16T11:13:06.317Z,85.97
2017-06-16T11:14:15.272Z,84.81
2017-06-16T11:15:24.225Z,89.1
2017-06-16T11:16:33.234Z,90.16
2017-06-16T11:17:42.188Z,88.24
2017-06-16T11:18:51.150Z,87.56
2017-06-16T11:20:00.193Z,91.22
2017-06-16T11:21:09.152Z,92.18
2017-06-16T11:22:18.248Z,91.51
2017-06-16T11:23:27.292Z,87.42
2017-06-16T11:24:36.259Z,85.02
2017-06-16T11:25:45.215Z,86.85
2017-06-16T11:26:54.168Z,87.9
2017-06-16T11:28:03.171Z,86.56
2017-06-16T11:29:12.131Z,90.5
2017-06-16T11:30:21.105Z,91.75
2017-06-16T11:31:30.477Z,95.89
2017-06-16T11:32:39.433Z,97.38
2017-06-16T11:33:48.393Z,92.57
2017-06-16T11:34:57.351Z,91.89
2017-06-16T11:36:06.314Z,90.83
2017-06-16T11:37:15.273Z,87.76
2017-06-16T11:38:24.227Z,92.95
2017-06-16T11:39:33.238Z,93.38
2017-06-16T11:40:42.193Z,96.61
2017-06-16T11:41:51.151Z,98.39
2017-06-16T11:43:00.111Z,99.44
2017-06-16T11:44:09.071Z,99.49
2017-06-16T11:45:18.076Z,99.99
2017-06-16T11:46:27.037Z,99.99
2017-06-16T11:47:35.997Z,99.2
2017-06-16T11:48:45.035Z,99.99
2017-06-16T11:49:53.996Z,99.99
2017-06-16T11:51:03.009Z,99.99
2017-06-16T11:52:12.053Z,99.99
2017-06-16T11:53:21.048Z,99.99
2017-06-16T11:54:30.328Z,99.99
2017-06-16T11:55:39.368Z,99.99
2017-06-16T11:56:48.322Z,99.99
2017-06-16T11:57:57.277Z,99.99
2017-06-16T11:59:06.239Z,99.99
2017-06-16T12:00:15.195Z,99.99
2017-06-16T12:01:24.238Z,99.99
2017-06-16T12:02:33.328Z,99.99
2017-06-16T12:03:42.326Z,99.99
2017-06-16T12:04:51.282Z,99.99
2017-06-16T12:06:00.251Z,99.99
2017-06-16T12:07:09.206Z,99.99
2017-06-16T12:08:18.212Z,99.99
2017-06-16T12:09:27.170Z,99.99
2017-06-16T12:10:36.214Z,99.92
2017-06-16T12:11:45.171Z,99.99
2017-06-16T12:12:54.128Z,97.61
2017-06-16T12:14:03.084Z,99.77
2017-06-16T12:15:12.044Z,99.99
2017-06-16T12:16:21.006Z,99.99
2017-06-16T12:17:29.962Z,99.99
2017-06-16T12:18:38.920Z,97.04
2017-06-16T12:19:47.923Z,98.48
2017-06-16T12:20:56.879Z,99.25
2017-06-16T12:22:05.836Z,97.61
2017-06-16T12:23:14.788Z,99.77
2017-06-16T12:24:23.744Z,99.49
2017-06-16T12:25:33.104Z,95.46
2017-06-16T12:26:42.061Z,97.86
2017-06-16T12:27:51.015Z,95.36
2017-06-16T12:28:59.974Z,89.89
2017-06-16T12:30:09.248Z,93.35
2017-06-16T12:31:18.258Z,93.15
2017-06-16T12:32:27.215Z,96.42
2017-06-16T12:33:36.263Z,94.45
2017-06-16T12:34:45.226Z,93.78
2017-06-16T12:35:54.182Z,96.47
2017-06-16T12:37:03.188Z,96.37
2017-06-16T12:38:12.141Z,98.38
2017-06-16T12:39:21.101Z,99.99
2017-06-16T12:40:30.059Z,96.61
2017-06-16T12:41:39.023Z,96.8
2017-06-16T12:42:47.982Z,98.33
2017-06-16T12:43:57.262Z,99.99
2017-06-16T12:45:06.220Z,96.8
2017-06-16T12:46:15.179Z,97.18
2017-06-16T12:47:24.137Z,98.33
2017-06-16T12:48:33.141Z,99.99
2017-06-16T12:49:42.102Z,99.99
2017-06-16T12:50:51.056Z,99.48
2017-06-16T12:52:00.015Z,97.76
2017-06-16T12:53:08.974Z,98.33
2017-06-16T12:54:17.935Z,99.29
2017-06-16T12:55:26.893Z,99.99
2017-06-16T12:56:35.851Z,96.13
2017-06-16T12:57:44.810Z,99.99
2017-06-16T12:58:53.852Z,99.99
2017-06-16T13:00:02.894Z,99.99
2017-06-16T13:01:11.845Z,99.99
2017-06-16T13:02:20.801Z,99.99
2017-06-16T13:03:29.754Z,99.99
2017-06-16T13:04:38.712Z,99.99
2017-06-16T13:05:47.666Z,97.61
2017-06-16T13:06:56.619Z,99.99
2017-06-16T13:08:05.580Z,99.99
2017-06-16T13:09:14.534Z,99.99
2017-06-16T13:10:23.493Z,99.99
2017-06-16T13:11:32.447Z,99.99
2017-06-16T13:12:41.414Z,97.47
2017-06-16T13:13:50.377Z,98.43
2017-06-16T13:14:59.334Z,96.61
2017-06-16T13:16:08.294Z,98.53
2017-06-16T13:17:17.300Z,96.61
2017-06-16T13:18:26.358Z,92.86
2017-06-16T13:19:35.314Z,95.6
2017-06-16T13:20:44.354Z,96.27
2017-06-16T13:21:53.315Z,95.31
2017-06-16T13:23:02.324Z,96.66
2017-06-16T13:24:11.294Z,95.21
2017-06-16T13:25:20.253Z,99.73
2017-06-16T13:26:29.213Z,99.99
2017-06-16T13:27:38.198Z,99.1
2017-06-16T13:28:47.206Z,99.99
2017-06-16T13:29:56.251Z,99.99
2017-06-16T13:31:05.209Z,99.99
2017-06-16T13:32:14.166Z,99.99
2017-06-16T13:33:23.206Z,99.99
2017-06-16T13:34:32.184Z,99.99
2017-06-16T13:35:41.140Z,99.99
2017-06-16T13:36:50.092Z,99.99
2017-06-16T13:37:59.050Z,99.99
2017-06-16T13:39:08.006Z,99.99
2017-06-16T13:40:17.028Z,99.99
2017-06-16T13:41:26.307Z,99.99
2017-06-16T13:42:35.261Z,99.99
2017-06-16T13:43:44.217Z,99.99
2017-06-16T13:44:53.171Z,99.99
2017-06-16T13:46:02.181Z,99.99
2017-06-16T13:47:11.141Z,99.99
2017-06-16T13:48:20.182Z,99.99
2017-06-16T13:49:29.132Z,99.99
2017-06-16T13:50:38.083Z,99.99
2017-06-16T13:51:47.085Z,99.99
2017-06-16T13:52:56.047Z,99.99
2017-06-16T13:54:05.001Z,99.99
2017-06-16T13:55:14.037Z,99.99
2017-06-16T13:56:22.992Z,99.99
2017-06-16T13:57:31.996Z,99.99
2017-06-16T13:58:40.951Z,99.99
2017-06-16T13:59:49.910Z,99.99
2017-06-16T14:00:58.867Z,99.99
2017-06-16T14:02:07.833Z,99.99
2017-06-16T14:03:16.836Z,99.99
2017-06-16T14:04:25.793Z,99.99
2017-06-16T14:05:34.745Z,99.99
2017-06-16T14:06:43.697Z,99.99
2017-06-16T14:07:52.652Z,99.99
2017-06-16T14:09:01.652Z,99.99
2017-06-16T14:10:10.608Z,99.99
2017-06-16T14:11:19.902Z,99.99
2017-06-16T14:12:28.858Z,99.99
2017-06-16T14:13:37.812Z,99.99
2017-06-16T14:14:46.822Z,99.99
2017-06-16T14:15:55.861Z,99.99
2017-06-16T14:17:04.814Z,99.99
2017-06-16T14:18:13.776Z,99.99
2017-06-16T14:19:22.730Z,99.99
2017-06-16T14:20:32.057Z,99.99
2017-06-16T14:21:41.010Z,99.99
2017-06-16T14:22:49.982Z,99.99
2017-06-16T14:23:58.939Z,99.99
2017-06-16T14:25:07.891Z,99.99
2017-06-16T14:26:16.895Z,99.99
2017-06-16T14:27:25.845Z,99.99
2017-06-16T14:28:34.800Z,99.99
2017-06-16T14:29:43.755Z,99.99
2017-06-16T14:30:52.711Z,99.99
2017-06-16T14:32:01.673Z,99.99
2017-06-16T14:33:10.626Z,99.99
2017-06-16T14:34:19.926Z,99.99
2017-06-16T14:35:28.879Z,99.05
2017-06-16T14:36:37.831Z,99.99
2017-06-16T14:37:46.838Z,99.99
2017-06-16T14:38:55.791Z,99.99
2017-06-16T14:40:04.748Z,99.44
2017-06-16T14:41:13.792Z,98.38
2017-06-16T14:42:22.745Z,97.52
2017-06-16T14:43:31.696Z,98.1
2017-06-16T14:44:40.650Z,99.05
2017-06-16T14:45:49.606Z,97.71
2017-06-16T14:46:58.881Z,96.27
2017-06-16T14:48:07.840Z,96.7
2017-06-16T14:49:16.934Z,96.22